sensor_id;sensor_type;location;lat;lon;timestamp;P1;durP1;ratioP1;P2;durP2;ratioP2
9418;SDS011;4748;50.802;7.132;2022-12-07T00:01:27;6.97;;;4.73;;
9418;SDS011;4748;50.802;7.132;2022-12-07T00:03:56;10.57;;;4.63;;
9418;SDS011;4748;50.802;7.132;2022-12-07T00:06:25;7.90;;;5.40;;
9418;SDS011;4748;50.802;7.132;2022-12-07T00:08:51;7.30;;;5.10;;
9418;SDS011;4748;50.802;7.132;2022-12-07T00:11:17;6.50;;;3.83;;
9418;SDS011;4748;50.802;7.132;2022-12-07T00:13:45;9.83;;;5.37;;
9418;SDS011;4748;50.802;7.132;2022-12-07T00:16:12;5.73;;;4.07;;
9418;SDS011;4748;50.802;7.132;2022-12-07T00:18:39;8.53;;;5.90;;
9418;SDS011;4748;50.802;7.132;2022-12-07T00:21:07;12.73;;;6.27;;
9418;SDS011;4748;50.802;7.132;2022-12-07T00:23:36;7.67;;;4.97;;
9418;SDS011;4748;50.802;7.132;2022-12-07T00:26:06;9.63;;;4.53;;
9418;SDS011;4748;50.802;7.132;2022-12-07T00:28:36;13.23;;;6.13;;
9418;SDS011;4748;50.802;7.132;2022-12-07T00:31:11;7.63;;;5.07;;
9418;SDS011;4748;50.802;7.132;2022-12-07T00:33:38;8.60;;;5.30;;
9418;SDS011;4748;50.802;7.132;2022-12-07T00:36:04;13.57;;;5.00;;
9418;SDS011;4748;50.802;7.132;2022-12-07T00:38:32;10.37;;;5.93;;
9418;SDS011;4748;50.802;7.132;2022-12-07T00:41:00;8.13;;;5.20;;
9418;SDS011;4748;50.802;7.132;2022-12-07T00:43:27;10.77;;;5.37;;
9418;SDS011;4748;50.802;7.132;2022-12-07T00:45:53;17.57;;;6.90;;
9418;SDS011;4748;50.802;7.132;2022-12-07T00:48:19;10.27;;;5.53;;
9418;SDS011;4748;50.802;7.132;2022-12-07T00:50:45;9.87;;;5.40;;
9418;SDS011;4748;50.802;7.132;2022-12-07T00:53:10;11.70;;;5.47;;
9418;SDS011;4748;50.802;7.132;2022-12-07T00:55:35;6.80;;;4.97;;
9418;SDS011;4748;50.802;7.132;2022-12-07T00:58:01;11.30;;;5.30;;
9418;SDS011;4748;50.802;7.132;2022-12-07T01:00:27;7.90;;;5.30;;
9418;SDS011;4748;50.802;7.132;2022-12-07T01:02:52;11.47;;;6.07;;
9418;SDS011;4748;50.802;7.132;2022-12-07T01:05:17;7.57;;;4.83;;
9418;SDS011;4748;50.802;7.132;2022-12-07T01:07:43;9.07;;;5.00;;
9418;SDS011;4748;50.802;7.132;2022-12-07T01:10:08;9.13;;;5.73;;
9418;SDS011;4748;50.802;7.132;2022-12-07T01:12:34;6.43;;;4.70;;
9418;SDS011;4748;50.802;7.132;2022-12-07T01:14:59;11.20;;;6.37;;
9418;SDS011;4748;50.802;7.132;2022-12-07T01:17:24;8.17;;;5.67;;
9418;SDS011;4748;50.802;7.132;2022-12-07T01:19:50;13.10;;;5.97;;
9418;SDS011;4748;50.802;7.132;2022-12-07T01:22:15;7.93;;;5.60;;
9418;SDS011;4748;50.802;7.132;2022-12-07T01:24:40;9.90;;;6.30;;
9418;SDS011;4748;50.802;7.132;2022-12-07T01:27:06;7.03;;;5.63;;
9418;SDS011;4748;50.802;7.132;2022-12-07T01:29:31;15.93;;;5.97;;
9418;SDS011;4748;50.802;7.132;2022-12-07T01:31:56;9.77;;;5.33;;
9418;SDS011;4748;50.802;7.132;2022-12-07T01:34:22;8.50;;;6.00;;
9418;SDS011;4748;50.802;7.132;2022-12-07T01:36:47;7.60;;;5.00;;
9418;SDS011;4748;50.802;7.132;2022-12-07T01:39:12;15.07;;;6.27;;
9418;SDS011;4748;50.802;7.132;2022-12-07T01:41:39;10.13;;;5.13;;
9418;SDS011;4748;50.802;7.132;2022-12-07T01:44:27;11.47;;;6.47;;
9418;SDS011;4748;50.802;7.132;2022-12-07T01:47:01;8.90;;;6.40;;
9418;SDS011;4748;50.802;7.132;2022-12-07T01:49:35;12.60;;;6.47;;
9418;SDS011;4748;50.802;7.132;2022-12-07T01:54:39;11.23;;;5.63;;
9418;SDS011;4748;50.802;7.132;2022-12-07T01:57:06;9.53;;;6.10;;
9418;SDS011;4748;50.802;7.132;2022-12-07T01:59:33;10.70;;;4.67;;
9418;SDS011;4748;50.802;7.132;2022-12-07T02:02:00;10.20;;;5.67;;
9418;SDS011;4748;50.802;7.132;2022-12-07T02:04:29;9.60;;;5.57;;
9418;SDS011;4748;50.802;7.132;2022-12-07T02:06:54;8.70;;;5.67;;
9418;SDS011;4748;50.802;7.132;2022-12-07T02:09:20;9.50;;;5.77;;
9418;SDS011;4748;50.802;7.132;2022-12-07T02:11:46;12.90;;;7.67;;
9418;SDS011;4748;50.802;7.132;2022-12-07T02:14:11;9.47;;;5.10;;
9418;SDS011;4748;50.802;7.132;2022-12-07T02:16:40;9.30;;;6.10;;
9418;SDS011;4748;50.802;7.132;2022-12-07T02:22:08;6.73;;;5.07;;
9418;SDS011;4748;50.802;7.132;2022-12-07T02:24:45;13.33;;;5.67;;
9418;SDS011;4748;50.802;7.132;2022-12-07T02:35:51;5.70;;;4.00;;
9418;SDS011;4748;50.802;7.132;2022-12-07T02:38:07;9.40;;;5.97;;
9418;SDS011;4748;50.802;7.132;2022-12-07T02:40:43;8.77;;;6.57;;
9418;SDS011;4748;50.802;7.132;2022-12-07T02:46:01;13.93;;;5.87;;
9418;SDS011;4748;50.802;7.132;2022-12-07T02:48:31;7.77;;;6.10;;
9418;SDS011;4748;50.802;7.132;2022-12-07T02:50:59;7.93;;;5.63;;
9418;SDS011;4748;50.802;7.132;2022-12-07T02:53:28;8.03;;;4.60;;
9418;SDS011;4748;50.802;7.132;2022-12-07T02:56:16;8.70;;;5.43;;
9418;SDS011;4748;50.802;7.132;2022-12-07T03:01:50;9.63;;;5.43;;
9418;SDS011;4748;50.802;7.132;2022-12-07T03:04:55;6.40;;;4.70;;
9418;SDS011;4748;50.802;7.132;2022-12-07T03:13:09;7.53;;;4.43;;
9418;SDS011;4748;50.802;7.132;2022-12-07T03:15:58;9.17;;;5.60;;
9418;SDS011;4748;50.802;7.132;2022-12-07T03:18:27;6.60;;;4.53;;
9418;SDS011;4748;50.802;7.132;2022-12-07T03:20:57;8.63;;;4.83;;
9418;SDS011;4748;50.802;7.132;2022-12-07T03:23:27;15.83;;;5.73;;
9418;SDS011;4748;50.802;7.132;2022-12-07T03:25:55;7.80;;;4.77;;
9418;SDS011;4748;50.802;7.132;2022-12-07T03:28:24;10.63;;;6.43;;
9418;SDS011;4748;50.802;7.132;2022-12-07T03:30:57;8.70;;;4.53;;
9418;SDS011;4748;50.802;7.132;2022-12-07T03:33:36;9.63;;;4.47;;
9418;SDS011;4748;50.802;7.132;2022-12-07T03:36:11;10.87;;;5.00;;
9418;SDS011;4748;50.802;7.132;2022-12-07T03:41:14;8.67;;;4.97;;
9418;SDS011;4748;50.802;7.132;2022-12-07T03:43:44;5.40;;;3.80;;
9418;SDS011;4748;50.802;7.132;2022-12-07T03:46:18;8.43;;;5.33;;
9418;SDS011;4748;50.802;7.132;2022-12-07T03:54:05;8.77;;;5.90;;
9418;SDS011;4748;50.802;7.132;2022-12-07T03:56:40;12.03;;;6.17;;
9418;SDS011;4748;50.802;7.132;2022-12-07T03:59:08;8.03;;;4.70;;
9418;SDS011;4748;50.802;7.132;2022-12-07T04:01:34;10.00;;;6.47;;
9418;SDS011;4748;50.802;7.132;2022-12-07T04:04:00;8.63;;;6.20;;
9418;SDS011;4748;50.802;7.132;2022-12-07T04:06:25;7.70;;;5.67;;
9418;SDS011;4748;50.802;7.132;2022-12-07T04:08:50;7.97;;;5.37;;
9418;SDS011;4748;50.802;7.132;2022-12-07T04:11:16;9.57;;;6.17;;
9418;SDS011;4748;50.802;7.132;2022-12-07T04:13:41;8.40;;;6.13;;
9418;SDS011;4748;50.802;7.132;2022-12-07T04:16:27;8.60;;;5.07;;
9418;SDS011;4748;50.802;7.132;2022-12-07T04:18:52;9.33;;;5.27;;
9418;SDS011;4748;50.802;7.132;2022-12-07T04:21:17;12.27;;;6.30;;
9418;SDS011;4748;50.802;7.132;2022-12-07T04:23:42;8.17;;;5.37;;
9418;SDS011;4748;50.802;7.132;2022-12-07T04:26:08;13.83;;;6.40;;
9418;SDS011;4748;50.802;7.132;2022-12-07T04:28:33;10.47;;;5.73;;
9418;SDS011;4748;50.802;7.132;2022-12-07T04:30:58;9.20;;;5.47;;
9418;SDS011;4748;50.802;7.132;2022-12-07T04:33:24;19.53;;;6.30;;
9418;SDS011;4748;50.802;7.132;2022-12-07T04:35:49;11.27;;;5.97;;
9418;SDS011;4748;50.802;7.132;2022-12-07T04:38:14;12.33;;;7.23;;
9418;SDS011;4748;50.802;7.132;2022-12-07T04:40:40;11.00;;;6.77;;
9418;SDS011;4748;50.802;7.132;2022-12-07T04:43:05;6.83;;;5.40;;
9418;SDS011;4748;50.802;7.132;2022-12-07T04:45:30;5.70;;;4.57;;
9418;SDS011;4748;50.802;7.132;2022-12-07T04:47:55;13.87;;;6.40;;
9418;SDS011;4748;50.802;7.132;2022-12-07T04:50:21;10.17;;;6.33;;
9418;SDS011;4748;50.802;7.132;2022-12-07T04:52:46;13.20;;;5.23;;
9418;SDS011;4748;50.802;7.132;2022-12-07T04:55:11;8.53;;;5.07;;
9418;SDS011;4748;50.802;7.132;2022-12-07T04:57:37;11.80;;;5.00;;
9418;SDS011;4748;50.802;7.132;2022-12-07T05:00:02;21.60;;;5.37;;
9418;SDS011;4748;50.802;7.132;2022-12-07T05:02:28;13.77;;;5.40;;
9418;SDS011;4748;50.802;7.132;2022-12-07T05:04:53;5.37;;;3.60;;
9418;SDS011;4748;50.802;7.132;2022-12-07T05:07:18;5.20;;;3.77;;
9418;SDS011;4748;50.802;7.132;2022-12-07T05:09:44;8.57;;;4.70;;
9418;SDS011;4748;50.802;7.132;2022-12-07T05:12:09;8.33;;;4.33;;
9418;SDS011;4748;50.802;7.132;2022-12-07T05:14:34;5.73;;;3.07;;
9418;SDS011;4748;50.802;7.132;2022-12-07T05:17:00;5.33;;;3.87;;
9418;SDS011;4748;50.802;7.132;2022-12-07T05:19:25;6.03;;;3.73;;
9418;SDS011;4748;50.802;7.132;2022-12-07T05:21:51;8.00;;;4.93;;
9418;SDS011;4748;50.802;7.132;2022-12-07T05:24:17;8.07;;;3.80;;
9418;SDS011;4748;50.802;7.132;2022-12-07T05:26:42;4.97;;;4.40;;
9418;SDS011;4748;50.802;7.132;2022-12-07T05:29:15;5.57;;;4.23;;
9418;SDS011;4748;50.802;7.132;2022-12-07T05:31:41;15.37;;;5.20;;
9418;SDS011;4748;50.802;7.132;2022-12-07T05:34:08;9.17;;;3.90;;
9418;SDS011;4748;50.802;7.132;2022-12-07T05:36:34;9.70;;;3.73;;
9418;SDS011;4748;50.802;7.132;2022-12-07T05:38:59;5.73;;;4.20;;
9418;SDS011;4748;50.802;7.132;2022-12-07T05:41:25;5.03;;;4.37;;
9418;SDS011;4748;50.802;7.132;2022-12-07T05:44:09;9.63;;;4.30;;
9418;SDS011;4748;50.802;7.132;2022-12-07T05:46:34;6.90;;;4.30;;
9418;SDS011;4748;50.802;7.132;2022-12-07T05:49:00;9.07;;;4.43;;
9418;SDS011;4748;50.802;7.132;2022-12-07T05:51:25;6.70;;;4.63;;
9418;SDS011;4748;50.802;7.132;2022-12-07T05:53:51;11.23;;;5.83;;
9418;SDS011;4748;50.802;7.132;2022-12-07T05:56:16;8.97;;;5.80;;
9418;SDS011;4748;50.802;7.132;2022-12-07T05:58:41;9.17;;;4.80;;
9418;SDS011;4748;50.802;7.132;2022-12-07T06:01:25;11.33;;;5.57;;
9418;SDS011;4748;50.802;7.132;2022-12-07T06:03:51;8.87;;;4.57;;
9418;SDS011;4748;50.802;7.132;2022-12-07T06:06:16;6.73;;;4.73;;
9418;SDS011;4748;50.802;7.132;2022-12-07T06:08:41;9.33;;;4.73;;
9418;SDS011;4748;50.802;7.132;2022-12-07T06:11:07;9.67;;;5.07;;
9418;SDS011;4748;50.802;7.132;2022-12-07T06:13:50;5.77;;;3.37;;
9418;SDS011;4748;50.802;7.132;2022-12-07T06:16:16;12.10;;;4.90;;
9418;SDS011;4748;50.802;7.132;2022-12-07T06:18:41;12.63;;;4.77;;
9418;SDS011;4748;50.802;7.132;2022-12-07T06:21:07;6.77;;;4.10;;
9418;SDS011;4748;50.802;7.132;2022-12-07T06:23:32;5.43;;;3.70;;
9418;SDS011;4748;50.802;7.132;2022-12-07T06:25:58;4.60;;;4.00;;
9418;SDS011;4748;50.802;7.132;2022-12-07T06:28:23;10.83;;;4.97;;
9418;SDS011;4748;50.802;7.132;2022-12-07T06:30:56;7.37;;;3.97;;
9418;SDS011;4748;50.802;7.132;2022-12-07T06:33:25;8.03;;;3.57;;
9418;SDS011;4748;50.802;7.132;2022-12-07T06:35:51;8.37;;;3.47;;
9418;SDS011;4748;50.802;7.132;2022-12-07T06:38:16;6.07;;;2.93;;
9418;SDS011;4748;50.802;7.132;2022-12-07T06:40:41;5.43;;;3.80;;
9418;SDS011;4748;50.802;7.132;2022-12-07T06:43:07;3.57;;;2.97;;
9418;SDS011;4748;50.802;7.132;2022-12-07T06:45:32;6.77;;;3.37;;
9418;SDS011;4748;50.802;7.132;2022-12-07T06:47:58;5.20;;;3.93;;
9418;SDS011;4748;50.802;7.132;2022-12-07T06:50:23;6.43;;;4.70;;
9418;SDS011;4748;50.802;7.132;2022-12-07T06:52:48;7.17;;;4.30;;
9418;SDS011;4748;50.802;7.132;2022-12-07T06:55:16;8.10;;;4.63;;
9418;SDS011;4748;50.802;7.132;2022-12-07T06:57:41;6.63;;;4.43;;
9418;SDS011;4748;50.802;7.132;2022-12-07T07:00:06;14.73;;;7.17;;
9418;SDS011;4748;50.802;7.132;2022-12-07T07:02:32;23.63;;;8.03;;
9418;SDS011;4748;50.802;7.132;2022-12-07T07:04:57;15.57;;;7.17;;
9418;SDS011;4748;50.802;7.132;2022-12-07T07:07:23;12.00;;;7.57;;
9418;SDS011;4748;50.802;7.132;2022-12-07T07:09:48;12.13;;;6.53;;
9418;SDS011;4748;50.802;7.132;2022-12-07T07:12:13;13.93;;;6.93;;
9418;SDS011;4748;50.802;7.132;2022-12-07T07:14:39;15.13;;;7.40;;
9418;SDS011;4748;50.802;7.132;2022-12-07T07:17:04;20.33;;;6.33;;
9418;SDS011;4748;50.802;7.132;2022-12-07T07:19:30;16.40;;;7.10;;
9418;SDS011;4748;50.802;7.132;2022-12-07T07:21:55;18.43;;;6.27;;
9418;SDS011;4748;50.802;7.132;2022-12-07T07:24:20;9.80;;;6.50;;
9418;SDS011;4748;50.802;7.132;2022-12-07T07:26:46;17.63;;;6.60;;
9418;SDS011;4748;50.802;7.132;2022-12-07T07:29:11;33.83;;;7.83;;
9418;SDS011;4748;50.802;7.132;2022-12-07T07:31:36;17.53;;;7.37;;
9418;SDS011;4748;50.802;7.132;2022-12-07T07:34:02;10.93;;;6.23;;
9418;SDS011;4748;50.802;7.132;2022-12-07T07:36:27;12.60;;;7.47;;
9418;SDS011;4748;50.802;7.132;2022-12-07T07:38:53;10.20;;;5.67;;
9418;SDS011;4748;50.802;7.132;2022-12-07T07:41:18;8.60;;;4.90;;
9418;SDS011;4748;50.802;7.132;2022-12-07T07:43:43;10.67;;;5.20;;
9418;SDS011;4748;50.802;7.132;2022-12-07T07:46:09;10.37;;;5.63;;
9418;SDS011;4748;50.802;7.132;2022-12-07T07:48:34;13.30;;;5.57;;
9418;SDS011;4748;50.802;7.132;2022-12-07T07:50:59;10.47;;;5.73;;
9418;SDS011;4748;50.802;7.132;2022-12-07T07:53:25;7.83;;;5.40;;
9418;SDS011;4748;50.802;7.132;2022-12-07T07:55:51;7.37;;;5.03;;
9418;SDS011;4748;50.802;7.132;2022-12-07T07:58:19;12.93;;;5.80;;
9418;SDS011;4748;50.802;7.132;2022-12-07T08:00:45;12.40;;;5.30;;
9418;SDS011;4748;50.802;7.132;2022-12-07T08:03:11;8.43;;;5.43;;
9418;SDS011;4748;50.802;7.132;2022-12-07T08:05:37;6.13;;;4.77;;
9418;SDS011;4748;50.802;7.132;2022-12-07T08:08:03;9.03;;;5.43;;
9418;SDS011;4748;50.802;7.132;2022-12-07T08:10:28;9.23;;;5.53;;
9418;SDS011;4748;50.802;7.132;2022-12-07T08:12:54;7.57;;;5.30;;
9418;SDS011;4748;50.802;7.132;2022-12-07T08:15:39;7.97;;;5.03;;
9418;SDS011;4748;50.802;7.132;2022-12-07T08:18:07;7.33;;;5.00;;
9418;SDS011;4748;50.802;7.132;2022-12-07T08:20:33;18.13;;;4.30;;
9418;SDS011;4748;50.802;7.132;2022-12-07T08:22:59;8.10;;;4.77;;
9418;SDS011;4748;50.802;7.132;2022-12-07T08:25:25;14.13;;;4.77;;
9418;SDS011;4748;50.802;7.132;2022-12-07T08:27:50;13.27;;;5.47;;
9418;SDS011;4748;50.802;7.132;2022-12-07T08:30:16;17.60;;;5.27;;
9418;SDS011;4748;50.802;7.132;2022-12-07T08:32:43;15.00;;;6.83;;
9418;SDS011;4748;50.802;7.132;2022-12-07T08:35:10;8.20;;;4.97;;
9418;SDS011;4748;50.802;7.132;2022-12-07T08:37:35;10.20;;;5.17;;
9418;SDS011;4748;50.802;7.132;2022-12-07T08:40:01;11.70;;;5.10;;
9418;SDS011;4748;50.802;7.132;2022-12-07T08:42:28;10.00;;;4.17;;
9418;SDS011;4748;50.802;7.132;2022-12-07T08:44:55;15.87;;;5.67;;
9418;SDS011;4748;50.802;7.132;2022-12-07T08:47:21;13.43;;;4.67;;
9418;SDS011;4748;50.802;7.132;2022-12-07T08:49:48;8.50;;;4.70;;
9418;SDS011;4748;50.802;7.132;2022-12-07T08:52:16;6.70;;;4.80;;
9418;SDS011;4748;50.802;7.132;2022-12-07T08:54:42;7.57;;;4.97;;
9418;SDS011;4748;50.802;7.132;2022-12-07T08:57:09;4.63;;;3.90;;
9418;SDS011;4748;50.802;7.132;2022-12-07T08:59:35;6.83;;;3.60;;
9418;SDS011;4748;50.802;7.132;2022-12-07T09:02:02;10.60;;;4.27;;
9418;SDS011;4748;50.802;7.132;2022-12-07T09:04:28;10.27;;;4.57;;
9418;SDS011;4748;50.802;7.132;2022-12-07T09:06:54;11.67;;;5.00;;
9418;SDS011;4748;50.802;7.132;2022-12-07T09:09:20;4.90;;;4.40;;
9418;SDS011;4748;50.802;7.132;2022-12-07T09:11:46;9.33;;;4.30;;
9418;SDS011;4748;50.802;7.132;2022-12-07T09:14:12;5.10;;;3.73;;
9418;SDS011;4748;50.802;7.132;2022-12-07T09:16:38;9.10;;;3.83;;
9418;SDS011;4748;50.802;7.132;2022-12-07T09:19:04;6.10;;;4.27;;
9418;SDS011;4748;50.802;7.132;2022-12-07T09:21:29;6.37;;;4.27;;
9418;SDS011;4748;50.802;7.132;2022-12-07T09:23:54;7.17;;;4.70;;
9418;SDS011;4748;50.802;7.132;2022-12-07T09:26:20;3.87;;;3.50;;
9418;SDS011;4748;50.802;7.132;2022-12-07T09:28:45;11.30;;;3.83;;
9418;SDS011;4748;50.802;7.132;2022-12-07T09:31:10;7.07;;;4.00;;
9418;SDS011;4748;50.802;7.132;2022-12-07T09:33:36;6.47;;;4.03;;
9418;SDS011;4748;50.802;7.132;2022-12-07T09:36:02;11.53;;;4.63;;
9418;SDS011;4748;50.802;7.132;2022-12-07T09:38:29;10.60;;;4.13;;
9418;SDS011;4748;50.802;7.132;2022-12-07T09:40:55;11.53;;;3.93;;
9418;SDS011;4748;50.802;7.132;2022-12-07T09:43:24;6.33;;;4.50;;
9418;SDS011;4748;50.802;7.132;2022-12-07T09:45:51;8.63;;;3.00;;
9418;SDS011;4748;50.802;7.132;2022-12-07T09:48:36;5.60;;;4.40;;
9418;SDS011;4748;50.802;7.132;2022-12-07T09:51:10;8.27;;;3.27;;
9418;SDS011;4748;50.802;7.132;2022-12-07T09:53:39;7.43;;;3.57;;
9418;SDS011;4748;50.802;7.132;2022-12-07T09:56:08;4.10;;;3.17;;
9418;SDS011;4748;50.802;7.132;2022-12-07T09:58:37;9.57;;;4.10;;
9418;SDS011;4748;50.802;7.132;2022-12-07T10:01:11;6.87;;;4.37;;
9418;SDS011;4748;50.802;7.132;2022-12-07T10:03:42;5.50;;;3.43;;
9418;SDS011;4748;50.802;7.132;2022-12-07T10:06:13;11.03;;;4.27;;
9418;SDS011;4748;50.802;7.132;2022-12-07T10:08:39;5.97;;;3.10;;
9418;SDS011;4748;50.802;7.132;2022-12-07T10:11:06;8.60;;;4.23;;
9418;SDS011;4748;50.802;7.132;2022-12-07T10:13:45;6.40;;;4.60;;
9418;SDS011;4748;50.802;7.132;2022-12-07T10:18:50;9.60;;;5.10;;
9418;SDS011;4748;50.802;7.132;2022-12-07T10:21:17;8.93;;;5.53;;
9418;SDS011;4748;50.802;7.132;2022-12-07T10:24:04;7.43;;;4.37;;
9418;SDS011;4748;50.802;7.132;2022-12-07T10:26:48;4.30;;;3.70;;
9418;SDS011;4748;50.802;7.132;2022-12-07T10:29:19;5.67;;;4.40;;
9418;SDS011;4748;50.802;7.132;2022-12-07T10:31:50;11.23;;;5.00;;
9418;SDS011;4748;50.802;7.132;2022-12-07T10:42:31;7.47;;;4.70;;
9418;SDS011;4748;50.802;7.132;2022-12-07T10:45:09;8.03;;;4.60;;
9418;SDS011;4748;50.802;7.132;2022-12-07T11:15:41;2.73;;;2.50;;
9418;SDS011;4748;50.802;7.132;2022-12-07T11:26:34;3.57;;;2.43;;
9418;SDS011;4748;50.802;7.132;2022-12-07T11:29:48;3.17;;;2.10;;
9418;SDS011;4748;50.802;7.132;2022-12-07T11:32:22;3.27;;;2.83;;
9418;SDS011;4748;50.802;7.132;2022-12-07T11:38:00;3.60;;;2.70;;
9418;SDS011;4748;50.802;7.132;2022-12-07T11:40:39;18.00;;;2.93;;
9418;SDS011;4748;50.802;7.132;2022-12-07T11:46:00;7.97;;;3.53;;
9418;SDS011;4748;50.802;7.132;2022-12-07T11:48:35;3.00;;;2.80;;
9418;SDS011;4748;50.802;7.132;2022-12-07T11:51:06;3.80;;;2.10;;
9418;SDS011;4748;50.802;7.132;2022-12-07T11:53:40;2.73;;;1.93;;
9418;SDS011;4748;50.802;7.132;2022-12-07T11:56:14;15.10;;;2.60;;
9418;SDS011;4748;50.802;7.132;2022-12-07T12:03:43;3.20;;;2.00;;
9418;SDS011;4748;50.802;7.132;2022-12-07T12:06:11;2.57;;;1.53;;
9418;SDS011;4748;50.802;7.132;2022-12-07T12:08:38;3.20;;;1.50;;
9418;SDS011;4748;50.802;7.132;2022-12-07T12:11:27;3.20;;;1.73;;
9418;SDS011;4748;50.802;7.132;2022-12-07T12:14:11;2.77;;;1.73;;
9418;SDS011;4748;50.802;7.132;2022-12-07T12:17:05;1.80;;;1.70;;
9418;SDS011;4748;50.802;7.132;2022-12-07T12:22:40;2.60;;;1.50;;
9418;SDS011;4748;50.802;7.132;2022-12-07T12:27:50;7.63;;;1.10;;
9418;SDS011;4748;50.802;7.132;2022-12-07T12:33:13;3.83;;;1.30;;
9418;SDS011;4748;50.802;7.132;2022-12-07T12:35:44;2.00;;;0.97;;
9418;SDS011;4748;50.802;7.132;2022-12-07T12:39:07;3.97;;;1.50;;
9418;SDS011;4748;50.802;7.132;2022-12-07T12:41:24;4.77;;;2.13;;
9418;SDS011;4748;50.802;7.132;2022-12-07T12:44:01;7.13;;;1.97;;
9418;SDS011;4748;50.802;7.132;2022-12-07T12:51:46;3.13;;;1.93;;
9418;SDS011;4748;50.802;7.132;2022-12-07T12:59:23;4.10;;;2.23;;
9418;SDS011;4748;50.802;7.132;2022-12-07T13:07:13;2.60;;;2.27;;
9418;SDS011;4748;50.802;7.132;2022-12-07T13:28:48;7.57;;;1.43;;
9418;SDS011;4748;50.802;7.132;2022-12-07T13:31:16;4.73;;;2.20;;
9418;SDS011;4748;50.802;7.132;2022-12-07T13:33:55;2.03;;;1.70;;
9418;SDS011;4748;50.802;7.132;2022-12-07T13:36:22;2.50;;;1.27;;
9418;SDS011;4748;50.802;7.132;2022-12-07T13:38:56;8.53;;;3.30;;
9418;SDS011;4748;50.802;7.132;2022-12-07T13:41:27;4.30;;;2.00;;
9418;SDS011;4748;50.802;7.132;2022-12-07T13:44:00;14.07;;;3.77;;
9418;SDS011;4748;50.802;7.132;2022-12-07T13:46:33;14.10;;;2.50;;
9418;SDS011;4748;50.802;7.132;2022-12-07T13:49:24;3.77;;;2.23;;
9418;SDS011;4748;50.802;7.132;2022-12-07T13:51:55;3.83;;;2.70;;
9418;SDS011;4748;50.802;7.132;2022-12-07T13:55:01;8.00;;;3.53;;
9418;SDS011;4748;50.802;7.132;2022-12-07T13:57:38;2.70;;;2.00;;
9418;SDS011;4748;50.802;7.132;2022-12-07T14:00:05;8.40;;;4.93;;
9418;SDS011;4748;50.802;7.132;2022-12-07T14:02:54;8.20;;;3.27;;
9418;SDS011;4748;50.802;7.132;2022-12-07T14:05:31;5.07;;;2.93;;
9418;SDS011;4748;50.802;7.132;2022-12-07T14:13:34;6.33;;;2.20;;
9418;SDS011;4748;50.802;7.132;2022-12-07T14:16:05;2.77;;;1.50;;
9418;SDS011;4748;50.802;7.132;2022-12-07T14:18:50;6.97;;;3.57;;
9418;SDS011;4748;50.802;7.132;2022-12-07T14:21:17;7.10;;;2.13;;
9418;SDS011;4748;50.802;7.132;2022-12-07T14:23:44;6.03;;;3.20;;
9418;SDS011;4748;50.802;7.132;2022-12-07T14:26:14;7.03;;;2.20;;
9418;SDS011;4748;50.802;7.132;2022-12-07T14:28:41;7.93;;;2.60;;
9418;SDS011;4748;50.802;7.132;2022-12-07T14:31:12;1.73;;;1.50;;
9418;SDS011;4748;50.802;7.132;2022-12-07T14:33:39;2.70;;;1.37;;
9418;SDS011;4748;50.802;7.132;2022-12-07T14:36:05;2.00;;;1.30;;
9418;SDS011;4748;50.802;7.132;2022-12-07T14:38:31;1.73;;;1.37;;
9418;SDS011;4748;50.802;7.132;2022-12-07T14:40:56;2.43;;;0.90;;
9418;SDS011;4748;50.802;7.132;2022-12-07T14:43:42;1.00;;;1.00;;
9418;SDS011;4748;50.802;7.132;2022-12-07T14:46:08;4.37;;;1.67;;
9418;SDS011;4748;50.802;7.132;2022-12-07T14:48:34;1.27;;;1.10;;
9418;SDS011;4748;50.802;7.132;2022-12-07T14:50:59;1.73;;;1.53;;
9418;SDS011;4748;50.802;7.132;2022-12-07T14:53:27;1.70;;;1.20;;
9418;SDS011;4748;50.802;7.132;2022-12-07T14:55:57;1.80;;;1.70;;
9418;SDS011;4748;50.802;7.132;2022-12-07T14:58:22;2.43;;;1.70;;
9418;SDS011;4748;50.802;7.132;2022-12-07T15:00:47;7.20;;;2.37;;
9418;SDS011;4748;50.802;7.132;2022-12-07T15:03:13;2.07;;;1.80;;
9418;SDS011;4748;50.802;7.132;2022-12-07T15:05:39;3.03;;;1.50;;
9418;SDS011;4748;50.802;7.132;2022-12-07T15:08:05;4.70;;;2.57;;
9418;SDS011;4748;50.802;7.132;2022-12-07T15:10:32;6.77;;;1.90;;
9418;SDS011;4748;50.802;7.132;2022-12-07T15:12:59;2.10;;;1.90;;
9418;SDS011;4748;50.802;7.132;2022-12-07T15:15:45;1.70;;;1.60;;
9418;SDS011;4748;50.802;7.132;2022-12-07T15:18:15;4.47;;;2.13;;
9418;SDS011;4748;50.802;7.132;2022-12-07T15:20:45;2.17;;;1.97;;
9418;SDS011;4748;50.802;7.132;2022-12-07T15:23:11;2.57;;;2.43;;
9418;SDS011;4748;50.802;7.132;2022-12-07T15:25:41;3.60;;;2.47;;
9418;SDS011;4748;50.802;7.132;2022-12-07T15:28:10;5.00;;;2.50;;
9418;SDS011;4748;50.802;7.132;2022-12-07T15:30:37;3.37;;;2.33;;
9418;SDS011;4748;50.802;7.132;2022-12-07T15:33:03;5.27;;;2.53;;
9418;SDS011;4748;50.802;7.132;2022-12-07T15:35:28;3.57;;;2.33;;
9418;SDS011;4748;50.802;7.132;2022-12-07T15:37:54;4.20;;;2.47;;
9418;SDS011;4748;50.802;7.132;2022-12-07T15:40:19;2.83;;;1.80;;
9418;SDS011;4748;50.802;7.132;2022-12-07T15:42:45;5.03;;;2.73;;
9418;SDS011;4748;50.802;7.132;2022-12-07T15:45:10;3.33;;;2.63;;
9418;SDS011;4748;50.802;7.132;2022-12-07T15:47:39;1.50;;;1.40;;
9418;SDS011;4748;50.802;7.132;2022-12-07T15:50:07;11.07;;;3.07;;
9418;SDS011;4748;50.802;7.132;2022-12-07T15:52:34;4.67;;;2.30;;
9418;SDS011;4748;50.802;7.132;2022-12-07T15:55:00;4.40;;;2.90;;
9418;SDS011;4748;50.802;7.132;2022-12-07T15:57:27;1.97;;;1.87;;
9418;SDS011;4748;50.802;7.132;2022-12-07T15:59:53;2.00;;;1.87;;
9418;SDS011;4748;50.802;7.132;2022-12-07T16:02:18;5.77;;;2.47;;
9418;SDS011;4748;50.802;7.132;2022-12-07T16:04:44;2.20;;;2.00;;
9418;SDS011;4748;50.802;7.132;2022-12-07T16:07:10;3.63;;;2.57;;
9418;SDS011;4748;50.802;7.132;2022-12-07T16:09:36;3.50;;;2.20;;
9418;SDS011;4748;50.802;7.132;2022-12-07T16:12:02;2.23;;;1.90;;
9418;SDS011;4748;50.802;7.132;2022-12-07T16:14:28;3.57;;;3.27;;
9418;SDS011;4748;50.802;7.132;2022-12-07T16:16:53;8.50;;;2.73;;
9418;SDS011;4748;50.802;7.132;2022-12-07T16:19:18;5.00;;;2.50;;
9418;SDS011;4748;50.802;7.132;2022-12-07T16:21:44;2.87;;;2.60;;
9418;SDS011;4748;50.802;7.132;2022-12-07T16:24:09;1.67;;;1.57;;
9418;SDS011;4748;50.802;7.132;2022-12-07T16:26:35;4.20;;;2.40;;
9418;SDS011;4748;50.802;7.132;2022-12-07T16:29:01;3.80;;;2.20;;
9418;SDS011;4748;50.802;7.132;2022-12-07T16:31:26;6.37;;;2.93;;
9418;SDS011;4748;50.802;7.132;2022-12-07T16:33:53;4.00;;;2.93;;
9418;SDS011;4748;50.802;7.132;2022-12-07T16:36:20;23.40;;;2.47;;
9418;SDS011;4748;50.802;7.132;2022-12-07T16:38:47;4.00;;;2.17;;
9418;SDS011;4748;50.802;7.132;2022-12-07T16:41:13;1.80;;;1.70;;
9418;SDS011;4748;50.802;7.132;2022-12-07T16:43:39;3.93;;;2.33;;
9418;SDS011;4748;50.802;7.132;2022-12-07T16:46:05;6.50;;;2.20;;
9418;SDS011;4748;50.802;7.132;2022-12-07T16:48:31;1.37;;;1.27;;
9418;SDS011;4748;50.802;7.132;2022-12-07T16:50:56;7.43;;;2.40;;
9418;SDS011;4748;50.802;7.132;2022-12-07T16:53:22;5.80;;;3.43;;
9418;SDS011;4748;50.802;7.132;2022-12-07T16:55:49;5.40;;;3.60;;
9418;SDS011;4748;50.802;7.132;2022-12-07T16:58:15;4.47;;;2.43;;
9418;SDS011;4748;50.802;7.132;2022-12-07T17:00:41;3.93;;;2.70;;
9418;SDS011;4748;50.802;7.132;2022-12-07T17:03:08;6.10;;;3.13;;
9418;SDS011;4748;50.802;7.132;2022-12-07T17:05:37;6.93;;;3.13;;
9418;SDS011;4748;50.802;7.132;2022-12-07T17:08:03;3.67;;;3.30;;
9418;SDS011;4748;50.802;7.132;2022-12-07T17:10:29;3.47;;;2.07;;
9418;SDS011;4748;50.802;7.132;2022-12-07T17:12:54;3.10;;;2.27;;
9418;SDS011;4748;50.802;7.132;2022-12-07T17:15:19;3.20;;;1.87;;
9418;SDS011;4748;50.802;7.132;2022-12-07T17:20:24;3.00;;;2.20;;
9418;SDS011;4748;50.802;7.132;2022-12-07T17:22:52;4.40;;;1.70;;
9418;SDS011;4748;50.802;7.132;2022-12-07T17:25:18;4.40;;;2.20;;
9418;SDS011;4748;50.802;7.132;2022-12-07T17:27:44;15.43;;;2.63;;
9418;SDS011;4748;50.802;7.132;2022-12-07T17:30:13;2.83;;;1.80;;
9418;SDS011;4748;50.802;7.132;2022-12-07T17:32:39;2.47;;;2.27;;
9418;SDS011;4748;50.802;7.132;2022-12-07T17:35:05;2.73;;;2.33;;
9418;SDS011;4748;50.802;7.132;2022-12-07T17:37:31;7.50;;;2.73;;
9418;SDS011;4748;50.802;7.132;2022-12-07T17:39:57;2.37;;;1.77;;
9418;SDS011;4748;50.802;7.132;2022-12-07T17:42:23;4.10;;;2.13;;
9418;SDS011;4748;50.802;7.132;2022-12-07T17:45:04;3.47;;;2.67;;